METAR Data
IDs: Format: Raw Decoded Include TAF

Data at: 1301 UTC 21 Oct 2018

KHBV 211230Z AUTO 00000KT 5SM BR OVC017 16/14 A3021 RMK AO2 T01620144
KHBV 211210Z AUTO 04007KT 7SM OVC013 16/15 A3021 RMK AO2 T01610146
KHBV 211150Z AUTO 00000KT 5SM BR OVC011 16/15 A3020 RMK AO2 70018 T01600148 10403 20077
KHBV 211130Z AUTO 00000KT 5SM BR OVC011 16/15 A3019 RMK AO2 T01600149
KHBV 211110Z AUTO 04004KT 4SM BR OVC009 16/15 A3019 RMK AO2 T01600148
KHBV 211050Z AUTO 04009KT 5SM BR OVC009 16/15 A3018 RMK AO2 T01610146
KHBV 211030Z AUTO 04010KT 5SM BR OVC011 16/15 A3018 RMK AO2 T01610146
KHBV 211010Z AUTO 04010KT 5SM BR OVC011 16/15 A3018 RMK AO2 T01610146
KHBV 210950Z AUTO 04009KT 7SM OVC011 16/15 A3018 RMK AO2 T01610146
KHBV 210930Z AUTO 04009KT 5SM BR OVC011 16/15 A3018 RMK AO2 T01620147
KHBV 210910Z AUTO 00000KT 5SM BR OVC011 16/15 A3018 RMK AO2 T01610147
KHBV 210850Z AUTO 00000KT 5SM BR OVC011 16/15 A3018 RMK AO2 T01610147
KHBV 210830Z AUTO 04007KT 4SM BR OVC011 16/15 A3018 RMK AO2 T01610147
KHBV 210810Z AUTO 04009KT 7SM OVC011 16/15 A3018 RMK AO2 T01620149
KHBV 210750Z AUTO 03007KT 5SM BR OVC011 16/15 A3019 RMK AO2 T01630150
KHBV 210730Z AUTO 03003KT 7SM OVC011 16/15 A3018 RMK AO2 T01640150
KHBV 210710Z AUTO 03003KT 5SM BR OVC013 17/15 A3019 RMK AO2 T01650150
KHBV 210650Z AUTO 02006KT 5SM BR OVC013 17/15 A3018 RMK AO2 T01650150
KHBV 210630Z AUTO 00000KT 5SM BR OVC015 17/15 A3018 RMK AO2 T01660150
KHBV 210610Z AUTO 01007KT 5SM BR OVC017 17/15 A3019 RMK AO2 T01660151
KHBV 210550Z AUTO 02006KT 5SM BR OVC019 17/15 A3019 RMK AO2 60018 T01670154 10403 20077 404030077
KHBV 210530Z AUTO 00000KT 7SM BKN019 OVC080 17/16 A3020 RMK AO2 T01670155
KHBV 210510Z AUTO 00000KT 5SM BR BKN100 17/16 A3020 RMK AO2 T01670155
KHBV 210450Z AUTO 00000KT 7SM SCT041 BKN090 17/16 A3020 RMK AO2 T01700155
KHBV 210430Z AUTO 00000KT 7SM RA BKN041 BKN060 OVC095 17/16 A3021 RMK AO2 T01710156
KHBV 210410Z AUTO 03007KT 10SM -RA SCT037 SCT060 OVC095 17/16 A3020 RMK AO2 T01720158
KHBV 210350Z AUTO 02008KT 10SM -RA SCT014 OVC037 17/16 A3020 RMK AO2 P0005 T01740160
KHBV 210330Z AUTO 03009KT 10SM -RA SCT016 OVC037 18/16 A3020 RMK AO2 P0004 T01770164
KHBV 210310Z AUTO 04009KT 7SM RA BKN016 BKN029 OVC037 18/17 A3019 RMK AO2 P0003 T01810170
KHBV 210250Z AUTO 04008KT 7SM RA SCT012 BKN016 OVC038 18/17 A3019 RMK AO2 P0006 60010 T01830171
KHBV 210230Z AUTO 04011G19KT 10SM -RA SCT008 BKN013 OVC038 19/18 A3018 RMK AO2 P0001 T01890178
KHBV 210210Z AUTO 00000KT 10SM -RA BKN008 BKN014 OVC033 19/18 A3017 RMK AO2 P0001 T01940184
KHBV 210150Z AUTO 03003KT 10SM -RA SCT005 BKN008 OVC014 20/19 A3017 RMK AO2 P0003 T01970189
KHBV 210130Z AUTO 00000KT 7SM -RA BKN010 OVC015 20/19 A3016 RMK AO2 P0002 T01990190
KHBV 210110Z AUTO 00000KT 5SM -RA SCT015 OVC023 20/19 A3015 RMK AO2 P0001 T02000188
KHBV 210050Z AUTO 00000KT 10SM RA SCT019 BKN037 OVC044 20/19 A3014 RMK AO2 P0001 T02000187
KHBV 210030Z AUTO 00000KT 7SM -RA SCT022 BKN032 OVC046 20/19 A3013 RMK AO2 T02020185
KHBV 210010Z AUTO 00000KT 5SM BR OVC022 21/19 A3013 RMK AO2 T02050185
KHBV 202350Z AUTO 00000KT 5SM -RA OVC022 21/18 A3012 RMK AO2 T02080184 10403 20077
KHBV 202330Z AUTO 00000KT 5SM RA OVC022 21/18 A3012 RMK AO2 T02080183
KHBV 202310Z AUTO 00000KT 5SM HZ OVC022 21/18 A3011 RMK AO2 T02100182
KHBV 202250Z AUTO 00000KT 4SM HZ OVC020 21/18 A3010 RMK AO2 T02130180
KHBV 202230Z AUTO 00000KT 5SM HZ OVC016 22/18 A3010 RMK AO2 T02150180
KHBV 202210Z AUTO 00000KT 3SM HZ OVC014 22/18 A3010 RMK AO2 T02150180
KHBV 202150Z AUTO 01007KT 4SM HZ OVC014 22/18 A3010 RMK AO2 T02150180
KHBV 202130Z AUTO 01006KT 5SM HZ OVC012 22/18 A3010 RMK AO2 T02150180
KHBV 202110Z AUTO 02006KT 4SM HZ OVC012 22/18 A3010 RMK AO2 T02150181
KHBV 202050Z AUTO 01006KT 4SM HZ OVC012 22/18 A3010 RMK AO2 T02150182
KHBV 202030Z AUTO 00000KT 4SM HZ OVC012 22/18 A3010 RMK AO2 T02150181
KHBV 202010Z AUTO 00000KT 5SM HZ OVC012 22/18 A3010 RMK AO2 T02150181
KHBV 201950Z AUTO 00000KT 4SM HZ OVC012 22/18 A3010 RMK AO2 T02150180
KHBV 201930Z AUTO 00000KT 5SM HZ OVC010 21/18 A3010 RMK AO2 T02130179
KHBV 201910Z AUTO 36008KT 5SM HZ OVC010 21/18 A3011 RMK AO2 T02100176
KHBV 201850Z AUTO 36007KT 4SM HZ OVC008 21/18 A3011 RMK AO2 T02080176
KHBV 201830Z AUTO 35010KT 4SM HZ OVC008 21/18 A3013 RMK AO2 T02060175
KHBV 201810Z AUTO 01011G16KT 5SM RA OVC008 20/18 A3013 RMK AO2 T02020175
KHBV 201750Z AUTO 35009KT 5SM RA OVC008 20/18 A3014 RMK AO2 T01990175 10403 20077
KHBV 201730Z AUTO 35011G14KT 4SM BR OVC008 20/18 A3015 RMK AO2 T02000175
KHBV 201710Z AUTO 36007G14KT 5SM BR OVC008 20/18 A3015 RMK AO2 T01980175
KHBV 201650Z AUTO 36009G14KT 4SM BR OVC008 20/18 A3016 RMK AO2 T01950175
KHBV 201630Z AUTO 36010KT 5SM BR OVC008 19/18 A3016 RMK AO2 T01930175
KHBV 201610Z AUTO 36006KT 4SM BR OVC006 19/18 A3017 RMK AO2 T01900175
KHBV 201550Z AUTO 00000KT 4SM BR OVC006 19/18 A3017 RMK AO2 T01890175
KHBV 201530Z AUTO 36007KT 5SM RA OVC006 19/18 A3016 RMK AO2 T01860175
KHBV 201510Z AUTO 36010G16KT 5SM RA OVC004 18/18 A3016 RMK AO2 T01840175
KHBV 201450Z AUTO 36010G14KT 5SM RA OVC004 18/17 A3016 RMK AO2 T01820174
KHBV 201430Z AUTO 36011G16KT 5SM RA OVC004 18/17 A3015 RMK AO2 T01810174
KHBV 201410Z AUTO 36008KT 5SM RA OVC004 18/17 A3015 RMK AO2 T01790172
KHBV 201350Z AUTO 01008KT 2 1/2SM RA OVC004 18/17 A3014 RMK AO2 T01780171
KHBV 201330Z AUTO 36009KT 2SM RA OVC004 18/17 A3013 RMK AO2 T01800172
KHBV 201310Z AUTO 34009G14KT 4SM RA OVC004 18/17 A3013 RMK AO2 T01820173
KHBV 201250Z AUTO 00000KT 5SM BR OVC004 18/17 A3013 RMK AO2 T01820172
KHBV 201230Z AUTO 00000KT 5SM BR OVC004 18/17 A3013 RMK AO2 T01810171
KHBV 201210Z AUTO 00000KT 5SM BR BKN004 OVC011 18/17 A3012 RMK AO2 T01810172
KHBV 201150Z AUTO 35009KT 4SM BR OVC004 18/17 A3011 RMK AO2 T01800172 10403 20077
KHBV 201130Z AUTO 00000KT 5SM BR OVC004 18/17 A3011 RMK AO2 T01800172
KHBV 201110Z AUTO 00000KT 4SM BR OVC004 18/17 A3010 RMK AO2 T01820174
KHBV 201050Z AUTO 00000KT 4SM BR OVC004 18/18 A3009 RMK AO2 T01830176
KHBV 201030Z AUTO 00000KT 3SM BR OVC004 18/18 A3010 RMK AO2 T01820175
KHBV 201010Z AUTO 00000KT 4SM BR OVC004 18/18 A3009 RMK AO2 T01820175
KHBV 200950Z AUTO 00000KT 4SM BR OVC004 18/18 A3008 RMK AO2 T01820175
KHBV 200930Z AUTO 36009KT 4SM BR OVC004 18/18 A3009 RMK AO2 T01830175
KHBV 200910Z AUTO 01008KT 5SM BR OVC004 18/18 A3009 RMK AO2 T01840176
KHBV 200850Z AUTO 00000KT 4SM BR OVC004 19/18 A3009 RMK AO2 T01850177
KHBV 200830Z AUTO 36008KT 4SM BR OVC002 19/18 A3009 RMK AO2 T01850178
KHBV 200810Z AUTO 35007KT 2 1/2SM BR OVC002 19/18 A3009 RMK AO2 VIS 1 1/2V5 T01860179
KHBV 200750Z AUTO 00000KT 1SM BR OVC002 19/18 A3009 RMK AO2 T01880180
KHBV 200730Z AUTO 36004KT 2 1/2SM BR OVC002 19/18 A3010 RMK AO2 T01880180
KHBV 200710Z AUTO 36004KT 2 1/2SM BR OVC002 19/18 A3011 RMK AO2 T01880180
KHBV 200650Z AUTO 00000KT 3SM BR OVC002 19/18 A3011 RMK AO2 LTG DSNT NE T01890180
KHBV 200630Z AUTO 00000KT 4SM BR OVC004 19/18 A3011 RMK AO2 T01900180
KHBV 200610Z AUTO 00000KT 5SM BR OVC004 19/18 A3011 RMK AO2 T01900180
KHBV 200550Z AUTO 00000KT 5SM BR OVC004 19/18 A3011 RMK AO2 T01900180 10403 20077 404030077
KHBV 200530Z AUTO 00000KT 4SM BR OVC006 19/18 A3011 RMK AO2 T01890178
KHBV 200510Z AUTO 35006KT 4SM BR OVC006 19/18 A3011 RMK AO2 T01890177
KHBV 200450Z AUTO 35003KT 5SM BR OVC006 19/18 A3011 RMK AO2 T01900178
KHBV 200430Z AUTO 35003KT 5SM BR OVC006 19/18 A3012 RMK AO2 T01900178
KHBV 200410Z AUTO 36009KT 4SM BR OVC006 19/18 A3011 RMK AO2 T01900177
KHBV 200350Z AUTO 35006KT 4SM BR OVC006 19/18 A3011 RMK AO2 T01900177
KHBV 200330Z AUTO 35006KT 5SM BR OVC006 19/18 A3011 RMK AO2 T01900176
KHBV 200310Z AUTO 35009KT 4SM BR OVC006 19/18 A3011 RMK AO2 T01900176
KHBV 200250Z AUTO 36007KT 4SM BR OVC006 19/18 A3011 RMK AO2 T01900175
KHBV 200230Z AUTO 36004KT 5SM BR OVC006 19/18 A3011 RMK AO2 T01900175
KHBV 200210Z AUTO 36008KT 4SM BR OVC006 19/18 A3011 RMK AO2 T01900175
KHBV 200150Z AUTO 36005KT 4SM BR BKN006 OVC011 19/17 A3011 RMK AO2 T01900173
KHBV 200130Z AUTO 35006KT 5SM BR SCT006 BKN011 OVC039 19/17 A3010 RMK AO2 T01900172
KHBV 200110Z AUTO 35007KT 5SM BR BKN008 OVC013 19/17 A3010 RMK AO2 T01900172